Time;durP1;ratioP1;P1;durP2;ratioP2;P2;SDS_P1;SDS_P2;PMS_P1;PMS_P2;Temp;Humidity;BMP_temperature;BMP_pressure;BME280_temperature;BME280_humidity;BME280_pressure;Samples;Min_cycle;Max_cycle;Signal;HPM_P1;HPM_P2
2021/12/31 00:00:20;;;;;;;8.80;1.47;;;13.30;99.90;;;;;;5095642;28;20027;-59
2021/12/31 00:02:45;;;;;;;12.13;1.25;;;13.40;99.90;;;;;;5104286;28;20770;-57
2021/12/31 00:05:11;;;;;;;9.57;1.37;;;13.40;99.90;;;;;;5092924;28;20492;-57
2021/12/31 00:07:37;;;;;;;4.57;0.90;;;13.40;99.90;;;;;;5093016;28;20502;-57
2021/12/31 00:10:04;;;;;;;5.63;1.50;;;13.40;99.90;;;;;;5092967;28;20043;-59
2021/12/31 00:12:31;;;;;;;9.85;2.15;;;13.40;99.90;;;;;;5074980;28;20404;-57
2021/12/31 00:14:57;;;;;;;6.90;1.23;;;13.40;99.90;;;;;;5093381;28;20036;-59
2021/12/31 00:17:23;;;;;;;10.95;1.67;;;13.40;99.90;;;;;;5092690;28;20069;-57
2021/12/31 00:19:58;;;;;;;11.55;2.22;;;13.40;99.90;;;;;;5092455;28;20040;-56
2021/12/31 00:24:50;;;;;;;10.43;1.52;;;13.30;99.90;;;;;;5092821;28;20048;-56
2021/12/31 00:27:15;;;;;;;11.50;2.17;;;13.30;99.90;;;;;;5092540;28;20044;-59
2021/12/31 00:29:41;;;;;;;8.80;1.80;;;13.30;99.90;;;;;;5092439;28;20361;-58
2021/12/31 00:32:06;;;;;;;11.53;2.43;;;13.30;99.90;;;;;;5074312;28;20284;-58
2021/12/31 00:34:32;;;;;;;6.50;1.70;;;13.30;99.90;;;;;;5074512;28;20043;-57
2021/12/31 00:36:57;;;;;;;7.78;2.40;;;13.30;99.90;;;;;;5074931;28;20263;-56
2021/12/31 00:39:23;;;;;;;12.93;1.93;;;13.30;99.90;;;;;;5093070;28;20040;-59
2021/12/31 00:41:48;;;;;;;4.43;1.90;;;13.30;99.90;;;;;;5092709;28;20512;-59
2021/12/31 00:44:14;;;;;;;8.63;2.17;;;13.40;99.90;;;;;;5092400;28;20043;-58
2021/12/31 00:46:40;;;;;;;9.38;2.17;;;13.40;99.90;;;;;;5092093;28;20320;-59
2021/12/31 00:49:06;;;;;;;9.25;2.08;;;13.40;99.90;;;;;;5092312;28;20111;-58
2021/12/31 00:51:33;;;;;;;5.75;1.50;;;13.40;99.90;;;;;;5073292;28;20512;-59
2021/12/31 00:53:59;;;;;;;7.60;1.95;;;13.40;99.90;;;;;;5103589;28;20115;-59
2021/12/31 00:56:25;;;;;;;10.05;2.53;;;13.40;99.90;;;;;;5112625;28;20108;-58
2021/12/31 00:58:51;;;;;;;8.90;1.60;;;13.40;99.90;;;;;;5096226;28;20508;-59
2021/12/31 01:01:19;;;;;;;8.43;2.15;;;13.50;99.90;;;;;;5091380;28;20044;-59
2021/12/31 01:03:46;;;;;;;6.45;1.75;;;13.50;99.90;;;;;;5101256;28;20062;-58
2021/12/31 01:06:12;;;;;;;;;;;13.50;99.90;;;;;;5111255;28;20069;-58
2021/12/31 01:08:38;;;;;;;9.40;2.00;;;13.50;99.90;;;;;;5092241;28;19915;-58
2021/12/31 01:11:04;;;;;;;9.90;3.10;;;13.50;99.90;;;;;;5091512;28;20508;-58
2021/12/31 01:13:36;;;;;;;9.65;1.85;;;13.50;99.90;;;;;;5091578;28;20040;-59
2021/12/31 01:16:03;;;;;;;5.57;2.35;;;13.50;99.90;;;;;;5091348;28;20035;-57
2021/12/31 01:21:14;;;;;;;8.32;2.03;;;13.50;99.90;;;;;;5091152;28;20044;-59
2021/12/31 01:23:39;;;;;;;;;;;13.50;99.90;;;;;;5092183;28;20044;-59
2021/12/31 01:26:05;;;;;;;9.88;1.52;;;13.60;99.90;;;;;;5091413;28;20273;-59
2021/12/31 01:28:30;;;;;;;9.75;2.33;;;13.50;99.90;;;;;;5091071;28;20519;-57
2021/12/31 01:30:56;;;;;;;12.13;2.30;;;13.50;99.90;;;;;;5091241;28;20086;-57
2021/12/31 01:33:22;;;;;;;6.65;1.95;;;13.60;99.90;;;;;;5091539;28;20301;-59
2021/12/31 01:35:48;;;;;;;10.07;2.88;;;13.60;99.90;;;;;;5091485;28;20424;-57
2021/12/31 01:38:15;;;;;;;7.78;3.13;;;13.60;99.90;;;;;;5091288;28;20512;-59
2021/12/31 01:40:41;;;;;;;4.75;1.42;;;13.60;99.90;;;;;;5091957;28;20511;-58
2021/12/31 01:43:07;;;;;;;6.97;1.63;;;13.50;99.90;;;;;;5090932;28;20039;-58
2021/12/31 01:45:42;;;;;;;6.82;1.98;;;13.50;99.90;;;;;;5107611;28;20041;-59
2021/12/31 01:48:20;;;;;;;8.68;1.85;;;13.50;99.90;;;;;;5110999;28;20126;-58
2021/12/31 01:50:46;;;;;;;8.48;2.30;;;13.50;99.90;;;;;;5090979;28;20043;-56
2021/12/31 01:53:13;;;;;;;14.55;2.42;;;13.60;99.90;;;;;;5092093;28;20558;-59
2021/12/31 01:55:40;;;;;;;9.75;3.15;;;13.60;99.90;;;;;;5073954;28;20044;-59
2021/12/31 01:58:07;;;;;;;4.97;2.30;;;13.70;99.90;;;;;;5092889;28;20032;-56
2021/12/31 02:00:34;;;;;;;9.20;2.20;;;13.60;99.90;;;;;;5095451;28;20488;-58
2021/12/31 02:03:01;;;;;;;5.28;2.95;;;13.70;99.90;;;;;;5093712;28;20047;-57
2021/12/31 02:05:27;;;;;;;6.85;2.35;;;13.70;99.90;;;;;;5093877;28;20400;-56
2021/12/31 02:07:53;;;;;;;7.18;1.48;;;13.70;99.90;;;;;;5096439;28;20039;-58
2021/12/31 02:10:19;;;;;;;5.07;1.92;;;13.70;99.90;;;;;;5096355;28;20067;-57
2021/12/31 02:12:46;;;;;;;4.93;2.85;;;13.70;99.90;;;;;;5070261;28;20424;-57
2021/12/31 02:15:17;;;;;;;6.45;2.85;;;13.70;99.90;;;;;;5075631;28;20516;-56
2021/12/31 02:17:44;;;;;;;7.18;3.03;;;13.60;99.90;;;;;;5111033;28;20047;-57
2021/12/31 02:20:11;;;;;;;5.00;2.75;;;13.60;99.90;;;;;;5098398;28;20097;-57
2021/12/31 02:22:38;;;;;;;7.60;2.40;;;13.60;99.90;;;;;;5090288;28;20040;-58
2021/12/31 02:25:08;;;;;;;3.42;2.42;;;13.60;99.90;;;;;;5100825;28;20039;-57
2021/12/31 02:27:38;;;;;;;8.45;2.58;;;13.60;99.90;;;;;;5109092;28;20040;-57
2021/12/31 02:30:06;;;;;;;6.10;2.90;;;13.60;99.90;;;;;;5100485;28;20517;-59
2021/12/31 02:32:32;;;;;;;6.20;2.17;;;13.60;99.90;;;;;;5090307;28;20032;-59
2021/12/31 02:34:57;;;;;;;5.43;2.40;;;13.60;99.90;;;;;;5097907;28;20553;-58
2021/12/31 02:37:23;;;;;;;12.30;2.67;;;13.70;99.90;;;;;;5106908;28;20122;-59
2021/12/31 02:39:48;;;;;;;4.80;2.80;;;13.70;99.90;;;;;;5103910;28;20032;-56
2021/12/31 02:42:14;;;;;;;4.60;1.98;;;13.70;99.90;;;;;;5072425;28;20282;-58
2021/12/31 02:44:40;;;;;;;6.33;2.00;;;13.70;99.90;;;;;;5092964;28;20036;-59
2021/12/31 02:47:07;;;;;;;;;;;13.70;99.90;;;;;;5109194;28;20293;-59
2021/12/31 02:49:36;;;;;;;5.20;1.95;;;13.70;99.90;;;;;;5089104;28;19931;-59
2021/12/31 02:52:04;;;;;;;5.50;2.45;;;13.70;99.90;;;;;;5090485;28;20472;-59
2021/12/31 02:54:32;;;;;;;4.63;2.00;;;13.70;99.90;;;;;;5091372;28;20394;-59
2021/12/31 02:56:58;;;;;;;6.55;2.28;;;13.80;99.90;;;;;;5110214;28;20503;-59
2021/12/31 02:59:24;;;;;;;6.03;2.80;;;13.80;99.90;;;;;;5108184;28;20035;-59
2021/12/31 03:01:50;;;;;;;9.98;2.33;;;13.80;99.90;;;;;;5099161;28;20039;-59
2021/12/31 03:04:17;;;;;;;6.88;3.17;;;13.80;99.90;;;;;;5093107;28;20062;-59
2021/12/31 03:06:43;;;;;;;9.63;2.97;;;13.80;99.90;;;;;;5090118;28;20066;-59
2021/12/31 03:09:10;;;;;;;6.72;2.03;;;13.80;99.90;;;;;;5090235;28;20319;-59
2021/12/31 03:11:37;;;;;;;6.00;2.53;;;13.80;99.90;;;;;;5089856;28;20036;-59
2021/12/31 03:14:04;;;;;;;5.43;2.15;;;13.80;99.90;;;;;;5091182;28;20055;-59
2021/12/31 03:16:31;;;;;;;6.75;2.42;;;13.80;99.90;;;;;;5094132;28;20124;-59
2021/12/31 03:18:57;;;;;;;6.00;2.85;;;13.80;99.90;;;;;;5093612;28;20211;-59
2021/12/31 03:21:23;;;;;;;6.80;2.55;;;13.80;99.90;;;;;;5092665;28;20532;-59
2021/12/31 03:23:54;;;;;;;3.38;2.30;;;13.80;99.90;;;;;;5093701;28;20250;-59
2021/12/31 03:26:21;;;;;;;4.70;2.08;;;13.80;99.90;;;;;;5075795;28;20044;-59
2021/12/31 03:28:47;;;;;;;10.52;3.90;;;13.80;99.90;;;;;;5094238;28;20067;-58
2021/12/31 03:31:13;;;;;;;7.07;2.95;;;13.80;99.90;;;;;;5093976;28;20044;-59
2021/12/31 03:33:39;;;;;;;3.80;2.40;;;13.80;99.90;;;;;;5093575;28;20406;-59
2021/12/31 03:36:05;;;;;;;6.45;2.55;;;13.80;99.90;;;;;;5103064;28;20100;-59
2021/12/31 03:38:30;;;;;;;4.35;2.10;;;13.80;99.90;;;;;;5113522;28;20039;-58
2021/12/31 03:40:56;;;;;;;4.10;2.90;;;13.80;99.90;;;;;;5104874;28;20047;-59
2021/12/31 03:43:22;;;;;;;7.05;3.00;;;13.80;99.90;;;;;;5093567;28;20408;-59
2021/12/31 03:45:50;;;;;;;5.07;2.53;;;13.80;99.90;;;;;;5098690;28;20428;-59
2021/12/31 03:48:17;;;;;;;9.32;2.95;;;13.80;99.90;;;;;;5095506;28;20147;-59
2021/12/31 03:50:43;;;;;;;4.95;2.53;;;13.80;99.90;;;;;;5111452;28;20496;-59
2021/12/31 03:53:08;;;;;;;4.83;2.30;;;13.80;99.90;;;;;;5112025;28;20333;-59
2021/12/31 03:55:34;;;;;;;5.13;2.53;;;13.80;99.90;;;;;;5111253;28;20515;-59
2021/12/31 03:57:59;;;;;;;7.43;2.43;;;13.80;99.90;;;;;;5093186;28;20793;-59
2021/12/31 04:00:28;;;;;;;4.00;2.40;;;13.80;99.90;;;;;;5093695;28;20562;-59
2021/12/31 04:02:55;;;;;;;6.03;2.70;;;13.90;99.90;;;;;;5106989;28;20399;-59
2021/12/31 04:05:22;;;;;;;9.98;2.95;;;13.90;99.90;;;;;;5113206;28;20043;-59
2021/12/31 04:07:48;;;;;;;6.88;2.17;;;13.90;99.90;;;;;;5112710;28;20050;-59
2021/12/31 04:10:13;;;;;;;3.83;2.50;;;13.90;99.90;;;;;;5113097;28;20035;-59
2021/12/31 04:12:39;;;;;;;6.13;2.30;;;13.80;99.90;;;;;;5077055;28;20138;-59
2021/12/31 04:15:05;;;;;;;4.15;2.72;;;13.80;99.90;;;;;;5092619;28;20401;-59
2021/12/31 04:17:31;;;;;;;4.65;2.60;;;13.80;99.90;;;;;;5103146;28;20035;-59
2021/12/31 04:19:57;;;;;;;5.53;2.90;;;13.80;99.90;;;;;;5094439;28;20049;-59
2021/12/31 04:22:25;;;;;;;10.43;2.97;;;13.80;99.90;;;;;;5099842;28;20039;-59
2021/12/31 04:24:52;;;;;;;7.85;2.63;;;13.80;99.90;;;;;;5113482;28;20159;-59
2021/12/31 04:27:22;;;;;;;4.35;2.10;;;13.80;99.90;;;;;;5104519;28;20089;-59
2021/12/31 04:29:51;;;;;;;7.80;3.13;;;13.80;99.90;;;;;;5092173;28;20428;-59
2021/12/31 04:32:18;;;;;;;8.13;2.30;;;13.80;99.90;;;;;;5098441;28;20046;-59
2021/12/31 04:34:44;;;;;;;2.85;2.55;;;13.70;99.90;;;;;;5110243;28;20036;-58
2021/12/31 04:37:10;;;;;;;7.03;3.10;;;13.70;99.90;;;;;;5094535;28;20047;-59
2021/12/31 04:39:36;;;;;;;3.85;3.08;;;13.70;99.90;;;;;;5103937;28;20273;-59
2021/12/31 04:42:02;;;;;;;8.10;3.30;;;13.80;99.90;;;;;;5092914;28;20046;-59
2021/12/31 04:44:27;;;;;;;5.63;2.88;;;13.70;99.90;;;;;;5094908;28;20278;-59
2021/12/31 04:46:53;;;;;;;9.73;3.07;;;13.70;99.90;;;;;;5094226;28;20061;-59
2021/12/31 04:49:19;;;;;;;3.50;2.00;;;13.70;99.90;;;;;;5097285;28;20046;-57
2021/12/31 04:51:44;;;;;;;5.07;3.15;;;13.70;99.90;;;;;;5118273;28;20506;-58
2021/12/31 04:54:15;;;;;;;7.90;2.40;;;13.70;99.90;;;;;;5080179;28;20040;-58
2021/12/31 04:56:42;;;;;;;4.47;2.63;;;13.60;99.90;;;;;;5092145;28;20263;-59
2021/12/31 04:59:09;;;;;;;5.78;2.60;;;13.60;99.90;;;;;;5112070;28;20450;-56
2021/12/31 05:01:35;;;;;;;4.80;2.50;;;13.60;99.90;;;;;;5097590;28;20048;-59
2021/12/31 05:04:01;;;;;;;8.18;2.85;;;13.60;99.90;;;;;;5077311;28;20496;-59
2021/12/31 05:06:26;;;;;;;6.00;1.73;;;13.60;99.90;;;;;;5096779;28;20043;-59
2021/12/31 05:08:52;;;;;;;4.13;2.40;;;13.60;99.90;;;;;;5091856;28;20388;-59
2021/12/31 05:11:17;;;;;;;7.70;2.13;;;13.60;99.90;;;;;;5091243;28;20266;-59
2021/12/31 05:13:43;;;;;;;2.72;1.73;;;13.60;99.90;;;;;;5091861;28;20507;-57
2021/12/31 05:16:09;;;;;;;6.83;2.03;;;13.50;99.90;;;;;;5092539;28;20047;-57
2021/12/31 05:18:34;;;;;;;4.30;1.25;;;13.50;99.90;;;;;;5091788;28;20369;-58
2021/12/31 05:21:00;;;;;;;5.50;1.27;;;13.60;99.90;;;;;;5091657;28;20044;-59
2021/12/31 05:23:26;;;;;;;6.13;2.22;;;13.60;99.90;;;;;;5091720;28;20282;-57
2021/12/31 05:25:51;;;;;;;4.65;1.00;;;13.60;99.90;;;;;;5091212;28;20499;-58
2021/12/31 05:28:18;;;;;;;3.70;0.90;;;13.50;99.90;;;;;;5091770;28;20051;-57
2021/12/31 05:30:43;;;;;;;;;;;13.60;99.90;;;;;;5091604;28;20040;-57
2021/12/31 05:33:09;;;;;;;5.43;1.13;;;13.60;99.90;;;;;;5091624;28;19923;-56
2021/12/31 05:35:34;;;;;;;3.57;1.10;;;13.50;99.90;;;;;;5091431;28;20036;-56
2021/12/31 05:38:00;;;;;;;5.82;1.30;;;13.50;99.90;;;;;;5075542;28;20035;-56
2021/12/31 05:40:25;;;;;;;3.30;1.73;;;13.50;99.90;;;;;;5111046;28;20044;-57
2021/12/31 05:42:51;;;;;;;4.77;1.10;;;13.50;99.90;;;;;;5097961;28;20348;-58
2021/12/31 05:45:17;;;;;;;3.88;0.95;;;13.50;99.90;;;;;;5106739;28;20785;-56
2021/12/31 05:47:43;;;;;;;3.53;1.60;;;13.50;99.90;;;;;;5095375;28;20431;-56
2021/12/31 05:50:19;;;;;;;5.55;1.63;;;13.40;99.90;;;;;;5092965;28;20039;-58
2021/12/31 05:52:46;;;;;;;3.40;1.30;;;13.50;99.90;;;;;;5088058;28;20120;-58
2021/12/31 05:55:11;;;;;;;4.10;1.20;;;13.50;99.90;;;;;;5108698;28;20489;-58
2021/12/31 05:57:37;;;;;;;4.28;1.33;;;13.50;99.90;;;;;;5097446;28;20111;-58
2021/12/31 06:00:03;;;;;;;3.90;1.13;;;13.40;99.90;;;;;;5091809;28;20119;-59
2021/12/31 06:02:29;;;;;;;4.63;1.15;;;13.40;99.90;;;;;;5098821;28;20047;-57
2021/12/31 06:04:54;;;;;;;5.27;1.20;;;13.40;99.90;;;;;;5111556;28;20036;-58
2021/12/31 06:07:20;;;;;;;5.75;1.27;;;13.40;99.90;;;;;;5100888;28;20631;-57
2021/12/31 06:09:46;;;;;;;3.70;1.10;;;13.30;99.90;;;;;;5091492;28;20620;-58
2021/12/31 06:12:11;;;;;;;6.80;2.60;;;13.30;99.90;;;;;;5098853;28;20285;-57
2021/12/31 06:14:37;;;;;;;2.65;0.75;;;13.30;99.90;;;;;;5086336;28;20386;-56
2021/12/31 06:17:07;;;;;;;5.00;1.13;;;13.30;99.90;;;;;;5096590;28;20109;-57
2021/12/31 06:19:33;;;;;;;4.55;1.35;;;13.30;99.90;;;;;;5110839;28;20039;-57
2021/12/31 06:21:59;;;;;;;3.70;1.10;;;13.30;99.90;;;;;;5103671;28;20047;-58
2021/12/31 06:24:25;;;;;;;3.55;1.00;;;13.20;99.90;;;;;;5090249;28;20043;-56
2021/12/31 06:26:50;;;;;;;5.53;1.20;;;13.20;99.90;;;;;;5093286;28;20039;-57
2021/12/31 06:29:16;;;;;;;10.82;2.25;;;13.20;99.90;;;;;;5110536;28;20317;-58
2021/12/31 06:31:42;;;;;;;6.53;1.00;;;13.20;99.90;;;;;;5106022;28;20111;-57
2021/12/31 06:34:07;;;;;;;3.17;1.45;;;13.10;99.90;;;;;;5093568;28;20039;-55
2021/12/31 06:36:33;;;;;;;4.00;1.20;;;13.20;99.90;;;;;;5110584;28;20470;-54
2021/12/31 06:39:01;;;;;;;5.38;1.67;;;13.20;99.90;;;;;;5108137;28;20043;-57
2021/12/31 06:41:27;;;;;;;3.17;1.20;;;13.20;99.90;;;;;;5101406;28;20040;-57
2021/12/31 06:43:53;;;;;;;2.73;1.13;;;13.20;99.90;;;;;;5092000;28;20093;-59
2021/12/31 06:46:20;;;;;;;7.03;1.60;;;13.20;99.90;;;;;;5096940;28;20035;-58
2021/12/31 06:48:46;;;;;;;3.58;1.45;;;13.20;99.90;;;;;;5108360;28;20332;-58
2021/12/31 06:51:11;;;;;;;;;;;13.20;99.90;;;;;;5110497;28;20031;-58
2021/12/31 06:53:38;;;;;;;3.30;1.17;;;13.20;99.90;;;;;;5076029;28;19924;-58
2021/12/31 06:56:04;;;;;;;2.83;1.55;;;13.20;99.90;;;;;;5090469;28;20043;-55
2021/12/31 06:58:29;;;;;;;5.97;2.00;;;13.30;99.90;;;;;;5091290;28;20032;-59
2021/12/31 07:00:55;;;;;;;7.60;2.13;;;13.30;99.90;;;;;;5089814;28;20077;-59
2021/12/31 07:03:21;;;;;;;6.38;1.55;;;13.30;99.90;;;;;;5101558;28;20039;-59
2021/12/31 07:05:46;;;;;;;2.47;1.30;;;13.30;99.90;;;;;;5098104;28;20089;-57
2021/12/31 07:08:13;;;;;;;3.20;1.27;;;13.30;99.90;;;;;;5089881;28;20281;-57
2021/12/31 07:10:38;;;;;;;6.68;1.13;;;13.30;99.90;;;;;;5089874;28;20274;-58
2021/12/31 07:13:10;;;;;;;7.72;1.40;;;13.30;99.90;;;;;;5089966;28;20503;-57
2021/12/31 07:15:39;;;;;;;6.93;1.80;;;13.30;99.90;;;;;;5055685;28;20043;-59
2021/12/31 07:18:05;;;;;;;6.10;1.63;;;13.30;99.90;;;;;;5089826;28;20047;-59
2021/12/31 07:20:30;;;;;;;5.20;1.90;;;13.20;99.90;;;;;;5089938;28;20032;-57
2021/12/31 07:22:56;;;;;;;5.53;1.60;;;13.20;99.90;;;;;;5089780;28;20655;-57
2021/12/31 07:25:21;;;;;;;4.93;1.20;;;13.20;99.90;;;;;;5090211;28;20060;-60
2021/12/31 07:27:50;;;;;;;4.50;1.40;;;13.20;99.90;;;;;;5090018;28;20274;-59
2021/12/31 07:30:16;;;;;;;3.38;1.42;;;13.20;99.90;;;;;;5089760;28;20032;-58
2021/12/31 07:32:42;;;;;;;3.70;1.85;;;13.10;99.90;;;;;;5072253;28;20369;-59
2021/12/31 07:35:08;;;;;;;6.40;2.08;;;13.10;99.90;;;;;;5089890;28;20043;-57
2021/12/31 07:37:34;;;;;;;5.30;1.85;;;13.10;99.90;;;;;;5090147;28;20040;-58
2021/12/31 07:40:03;;;;;;;5.65;1.73;;;13.00;99.90;;;;;;5090023;28;20036;-61
2021/12/31 07:42:29;;;;;;;6.55;1.52;;;13.00;99.90;;;;;;5093215;28;20071;-56
2021/12/31 07:44:55;;;;;;;4.88;1.40;;;13.00;99.90;;;;;;5106412;28;20046;-57
2021/12/31 07:47:21;;;;;;;5.93;1.20;;;13.00;99.90;;;;;;5112182;28;20044;-57
2021/12/31 07:49:46;;;;;;;5.70;1.60;;;13.00;99.90;;;;;;5091324;28;20460;-54
2021/12/31 07:52:12;;;;;;;4.68;1.55;;;13.00;99.90;;;;;;5101093;28;20281;-56
2021/12/31 07:54:37;;;;;;;3.30;1.20;;;13.00;99.90;;;;;;5089646;28;20040;-57
2021/12/31 07:57:04;;;;;;;4.73;1.70;;;12.90;99.90;;;;;;5089431;28;20079;-57
2021/12/31 07:59:29;;;;;;;3.38;1.30;;;13.00;99.90;;;;;;5089662;28;20282;-56
2021/12/31 08:01:55;;;;;;;3.78;1.73;;;12.90;99.90;;;;;;5091909;28;20036;-57
2021/12/31 08:04:20;;;;;;;9.40;1.77;;;12.90;99.90;;;;;;5098523;28;20031;-57
2021/12/31 08:06:46;;;;;;;15.83;1.80;;;12.90;99.90;;;;;;5110425;28;20307;-56
2021/12/31 08:09:11;;;;;;;2.63;1.70;;;13.00;99.90;;;;;;5110550;28;20123;-55
2021/12/31 08:11:37;;;;;;;10.05;2.65;;;13.00;99.90;;;;;;5093212;28;20289;-57
2021/12/31 08:14:04;;;;;;;6.13;2.05;;;13.00;99.90;;;;;;5091370;28;20043;-58
2021/12/31 08:16:29;;;;;;;;;;;13.10;99.90;;;;;;5092358;28;20047;-57
2021/12/31 08:18:55;;;;;;;4.07;2.22;;;13.10;99.90;;;;;;5077333;28;19916;-59
2021/12/31 08:21:21;;;;;;;5.32;1.80;;;13.00;99.90;;;;;;5094442;28;20108;-56
2021/12/31 08:23:46;;;;;;;5.40;2.13;;;13.00;99.90;;;;;;5095226;28;20067;-57
2021/12/31 08:26:12;;;;;;;2.35;1.17;;;13.10;99.90;;;;;;5094916;28;20064;-60
2021/12/31 08:28:38;;;;;;;3.00;1.52;;;13.00;99.90;;;;;;5094881;28;20517;-59
2021/12/31 08:31:03;;;;;;;5.30;1.90;;;13.10;99.90;;;;;;5107826;28;20071;-59
2021/12/31 08:33:29;;;;;;;7.68;2.00;;;13.10;99.90;;;;;;5093904;28;20067;-57
2021/12/31 08:35:55;;;;;;;5.90;1.90;;;13.00;99.90;;;;;;5109514;28;20032;-60
2021/12/31 08:38:22;;;;;;;4.28;1.80;;;13.10;99.90;;;;;;5101498;28;20097;-59
2021/12/31 08:40:47;;;;;;;5.65;1.60;;;13.10;99.90;;;;;;5079918;28;20028;-60
2021/12/31 08:43:13;;;;;;;2.10;1.30;;;13.10;99.90;;;;;;5094622;28;20058;-58
2021/12/31 08:45:39;;;;;;;5.72;1.88;;;13.10;99.90;;;;;;5098647;28;20099;-59
2021/12/31 08:48:05;;;;;;;6.78;1.23;;;13.10;99.90;;;;;;5112256;28;20104;-59
2021/12/31 08:50:31;;;;;;;4.75;1.58;;;13.10;99.90;;;;;;5100052;28;20089;-59
2021/12/31 08:52:57;;;;;;;5.03;1.50;;;13.10;99.90;;;;;;5103553;28;20035;-57
2021/12/31 08:55:23;;;;;;;3.43;1.27;;;13.00;99.90;;;;;;5092273;28;20393;-58
2021/12/31 08:57:49;;;;;;;2.90;1.35;;;13.10;99.90;;;;;;5091807;28;20750;-59
2021/12/31 09:00:15;;;;;;;3.65;1.08;;;13.10;99.90;;;;;;5092140;28;20138;-59
2021/12/31 09:02:42;;;;;;;5.47;1.52;;;13.10;99.90;;;;;;5073893;28;20043;-58
2021/12/31 09:05:08;;;;;;;;;;;13.10;99.90;;;;;;5092854;28;20056;-59
2021/12/31 09:07:34;;;;;;;2.13;1.33;;;13.10;99.90;;;;;;5073640;28;19923;-59
2021/12/31 09:10:00;;;;;;;4.60;1.55;;;13.10;99.90;;;;;;5091888;28;20036;-58
2021/12/31 09:12:25;;;;;;;6.88;1.30;;;13.10;99.90;;;;;;5091461;28;20044;-56
2021/12/31 09:14:51;;;;;;;5.03;1.60;;;13.10;99.90;;;;;;5092664;28;20047;-59
2021/12/31 09:17:17;;;;;;;3.35;1.52;;;13.10;99.90;;;;;;5101796;28;20077;-59
2021/12/31 09:19:43;;;;;;;7.40;1.65;;;13.10;99.90;;;;;;5091075;28;20089;-59
2021/12/31 09:22:09;;;;;;;6.50;1.40;;;13.10;99.90;;;;;;5090048;28;20040;-58
2021/12/31 09:24:35;;;;;;;4.72;1.33;;;13.10;99.90;;;;;;5091124;28;20286;-59
2021/12/31 09:27:01;;;;;;;4.22;1.17;;;13.10;99.90;;;;;;5091385;28;20054;-58
2021/12/31 09:29:27;;;;;;;4.00;1.40;;;13.10;99.90;;;;;;5091248;28;20040;-59
2021/12/31 09:31:53;;;;;;;5.28;2.25;;;13.10;99.90;;;;;;5091038;28;20503;-57
2021/12/31 09:34:19;;;;;;;6.45;1.73;;;13.10;99.90;;;;;;5091371;28;20036;-57
2021/12/31 09:36:45;;;;;;;12.93;1.90;;;13.10;99.90;;;;;;5076836;28;20054;-57
2021/12/31 09:39:10;;;;;;;3.47;1.37;;;13.10;99.90;;;;;;5091233;28;20480;-57
2021/12/31 09:41:36;;;;;;;4.13;1.83;;;13.20;99.90;;;;;;5091080;28;20270;-57
2021/12/31 09:44:02;;;;;;;4.57;1.40;;;13.20;99.90;;;;;;5091203;28;20511;-58
2021/12/31 09:46:28;;;;;;;4.63;1.48;;;13.20;99.90;;;;;;5072746;28;20040;-57
2021/12/31 09:48:53;;;;;;;3.97;1.50;;;13.20;99.90;;;;;;5090635;28;20044;-58
2021/12/31 09:51:21;;;;;;;4.37;1.43;;;13.20;99.90;;;;;;5091039;28;20118;-58
2021/12/31 09:53:46;;;;;;;2.33;1.40;;;13.20;99.90;;;;;;5090969;28;20374;-57
2021/12/31 09:56:13;;;;;;;6.20;2.00;;;13.20;99.90;;;;;;5079403;28;20515;-58
2021/12/31 09:58:39;;;;;;;3.22;1.92;;;13.20;99.90;;;;;;5109555;28;20277;-57
2021/12/31 10:01:08;;;;;;;5.97;1.48;;;13.20;99.90;;;;;;5084995;28;20091;-56
2021/12/31 10:03:34;;;;;;;6.55;1.90;;;13.20;99.90;;;;;;5058754;28;20059;-56
2021/12/31 10:06:06;;;;;;;3.72;1.60;;;13.20;99.90;;;;;;5074567;28;20067;-57
2021/12/31 10:08:43;;;;;;;6.40;2.08;;;13.20;99.90;;;;;;5072068;28;20477;-58
2021/12/31 10:11:22;;;;;;;4.80;2.35;;;13.20;99.90;;;;;;5079139;28;20390;-58
2021/12/31 10:13:59;;;;;;;4.03;1.77;;;13.20;99.90;;;;;;5074018;28;20417;-58
2021/12/31 10:16:31;;;;;;;4.47;1.60;;;13.30;99.90;;;;;;5057493;28;20393;-58
2021/12/31 10:19:19;;;;;;;5.00;1.30;;;13.30;99.90;;;;;;5078222;28;20087;-54
2021/12/31 10:21:49;;;;;;;7.90;1.98;;;13.30;99.90;;;;;;5075483;28;20036;-56
2021/12/31 10:24:41;;;;;;;4.35;1.50;;;13.30;99.90;;;;;;5053951;28;20408;-56
2021/12/31 10:27:09;;;;;;;4.18;1.65;;;13.30;99.90;;;;;;5057171;28;20052;-57
2021/12/31 10:29:55;;;;;;;4.45;2.00;;;13.30;99.90;;;;;;5056666;28;20036;-55
2021/12/31 10:32:22;;;;;;;3.08;2.25;;;13.30;99.90;;;;;;5074303;28;20410;-54
2021/12/31 10:34:48;;;;;;;4.18;1.40;;;13.30;99.90;;;;;;5074605;28;20046;-56
2021/12/31 10:37:26;;;;;;;3.95;1.70;;;13.30;99.90;;;;;;5086420;28;20036;-55
2021/12/31 12:29:26;;;;;;;5.80;3.17;;;13.80;99.90;;;;;;5084754;28;20066;-62
2021/12/31 12:32:08;;;;;;;5.25;2.92;;;13.80;99.90;;;;;;5104262;28;20465;-62
2021/12/31 12:34:34;;;;;;;6.13;2.92;;;13.80;99.90;;;;;;5089855;28;20023;-62
2021/12/31 12:37:00;;;;;;;8.45;3.97;;;13.70;99.90;;;;;;5085142;28;20055;-61
2021/12/31 12:39:26;;;;;;;10.23;4.18;;;13.50;99.90;;;;;;5111276;28;20031;-61
2021/12/31 12:41:51;;;;;;;6.25;3.30;;;13.40;99.90;;;;;;5099713;28;20396;-62
2021/12/31 12:44:17;;;;;;;12.57;5.32;;;13.30;99.90;;;;;;5083723;28;20654;-61
2021/12/31 12:47:03;;;;;;;11.40;6.07;;;13.10;99.90;;;;;;5067452;28;20054;-61
2021/12/31 12:49:29;;;;;;;11.32;5.05;;;13.00;99.90;;;;;;5078472;28;20055;-59
2021/12/31 12:52:09;;;;;;;8.27;5.00;;;12.90;99.90;;;;;;5060223;28;20044;-60
2021/12/31 12:54:34;;;;;;;10.38;5.25;;;12.80;99.90;;;;;;5057348;28;20097;-61
2021/12/31 12:57:01;;;;;;;12.27;4.82;;;12.70;99.90;;;;;;5059155;28;20485;-59
2021/12/31 12:59:27;;;;;;;9.85;5.55;;;12.60;99.90;;;;;;5071591;28;20504;-62
2021/12/31 13:01:53;;;;;;;11.33;5.33;;;12.60;99.90;;;;;;5075027;28;20048;-61
2021/12/31 13:04:24;;;;;;;7.13;5.18;;;12.50;99.90;;;;;;5074775;28;20291;-61
2021/12/31 13:07:02;;;;;;;8.15;5.55;;;12.50;99.90;;;;;;5083572;28;20120;-61
2021/12/31 13:09:31;;;;;;;17.17;6.32;;;12.50;99.90;;;;;;5060124;28;20497;-61
2021/12/31 13:12:00;;;;;;;11.60;5.90;;;12.50;99.90;;;;;;5074038;28;20612;-61
2021/12/31 13:18:07;;;;;;;12.48;6.57;;;12.40;99.90;;;;;;5068140;28;20699;-61
2021/12/31 13:20:34;;;;;;;;;;;12.40;99.90;;;;;;5071491;28;20054;-61
2021/12/31 13:23:03;;;;;;;10.20;6.55;;;12.40;99.90;;;;;;5076359;28;19916;-61
2021/12/31 13:25:40;;;;;;;14.10;8.35;;;12.30;99.90;;;;;;5081294;28;20115;-61
2021/12/31 13:28:12;;;;;;;11.93;7.57;;;12.30;99.90;;;;;;5088639;28;20055;-61
2021/12/31 13:31:02;;;;;;;17.90;13.23;;;12.30;99.90;;;;;;5052030;28;20041;-62
2021/12/31 13:33:37;;;;;;;20.20;17.42;;;12.30;99.90;;;;;;5074413;28;20036;-65
2021/12/31 13:36:13;;;;;;;25.55;16.85;;;12.40;99.90;;;;;;5073447;28;20356;-64
2021/12/31 13:39:09;;;;;;;22.27;16.87;;;12.40;99.90;;;;;;5072928;28;20048;-64
2021/12/31 13:41:53;;;;;;;18.02;14.57;;;12.40;99.90;;;;;;5053427;28;20783;-65
2021/12/31 13:44:22;;;;;;;23.33;14.00;;;12.40;99.90;;;;;;5078706;28;20071;-64
2021/12/31 13:47:07;;;;;;;15.90;11.32;;;12.40;99.90;;;;;;5076073;28;20055;-64
2021/12/31 13:49:37;;;;;;;13.38;10.82;;;12.40;99.90;;;;;;5074134;28;20480;-63
2021/12/31 13:52:27;;;;;;;14.93;9.88;;;12.40;99.90;;;;;;5058465;28;20132;-64
2021/12/31 13:54:58;;;;;;;12.75;8.88;;;12.40;99.90;;;;;;5075269;28;20044;-64
2021/12/31 13:57:27;;;;;;;14.90;7.85;;;12.40;99.90;;;;;;5075277;28;20051;-64
2021/12/31 13:59:54;;;;;;;15.32;9.32;;;12.40;99.90;;;;;;5063335;28;20043;-64
2021/12/31 14:02:28;;;;;;;14.18;8.23;;;12.40;99.90;;;;;;5053852;28;20086;-63
2021/12/31 14:04:53;;;;;;;18.67;7.88;;;12.40;99.90;;;;;;5079719;28;20048;-65
2021/12/31 14:07:22;;;;;;;12.23;7.70;;;12.40;99.90;;;;;;5072742;28;20567;-63
2021/12/31 14:09:49;;;;;;;14.35;8.02;;;12.40;99.90;;;;;;5055574;28;20040;-65
2021/12/31 14:12:15;;;;;;;15.82;7.10;;;12.40;99.90;;;;;;5073112;28;20038;-64
2021/12/31 14:14:41;;;;;;;12.88;7.82;;;12.40;99.90;;;;;;5074341;28;20544;-63
2021/12/31 14:17:11;;;;;;;16.52;9.23;;;12.40;99.90;;;;;;5077008;28;20115;-62
2021/12/31 14:19:39;;;;;;;15.65;9.38;;;12.30;99.90;;;;;;5074457;28;20118;-63
2021/12/31 14:22:06;;;;;;;11.52;6.45;;;12.40;99.90;;;;;;5073712;28;20516;-62
2021/12/31 14:24:33;;;;;;;19.73;7.13;;;12.40;99.90;;;;;;5074624;28;20163;-63
2021/12/31 14:26:59;;;;;;;11.13;6.97;;;12.40;99.90;;;;;;5073791;28;20040;-62
2021/12/31 14:29:26;;;;;;;14.10;7.43;;;12.40;99.90;;;;;;5053456;28;20044;-62
2021/12/31 14:31:51;;;;;;;11.25;7.72;;;12.40;99.90;;;;;;5065359;28;20068;-63
2021/12/31 14:34:17;;;;;;;11.60;8.40;;;12.40;99.90;;;;;;5064281;28;20467;-63
2021/12/31 14:37:08;;;;;;;15.50;7.75;;;12.40;99.90;;;;;;5078986;28;20090;-63
2021/12/31 14:39:35;;;;;;;10.63;7.65;;;12.40;99.90;;;;;;5067037;28;20051;-62
2021/12/31 14:42:02;;;;;;;16.45;7.47;;;12.40;99.90;;;;;;5083484;28;20032;-63
2021/12/31 14:44:28;;;;;;;13.20;7.38;;;12.40;99.90;;;;;;5081319;28;20052;-63
2021/12/31 14:46:54;;;;;;;;;;;12.50;99.90;;;;;;5074825;28;20123;-63